Atlantic City, New Jersey
Current Conditions -  °F | °C
As of 9:54 AM on Friday 24 Oct 2014 (Local Time) from KACY Reporting Station
Overcast Overcast  
Wind Chill: 57°   Ceiling: 3200
Heat Index: 57°   Visibility: 10mi
Dew Point: 47°   Wind: 17mph
Humidity: 69%   Direction: 310°NW
Pressure: 29.86"   Gusts: 23mph
Location:  39.36°N, 74.43°W
Report Text: KACY 241354Z 31015G20KT 10SM OVC032 14/08 A2986 RMK AO2 SLP109 T01390083
Loading
Personal Weather Stations






























Interactive Weather Map
Tropical Storm Tracking
New forecast layout! Learn more

10-Day Weather Forecast

Advertisements
Track Severe Weather on mobile